Time;durP1;ratioP1;P1;durP2;ratioP2;P2;SDS_P1;SDS_P2;PMS_P1;PMS_P2;Temp;Humidity;BMP_temperature;BMP_pressure;BME280_temperature;BME280_humidity;BME280_pressure;Samples;Min_cycle;Max_cycle;Signal;HPM_P1;HPM_P2
2022/11/27 00:01:20;;;;;;;0.32;0.32;;;2.30;99.90;;;;;;5052447;28;20239;-69
2022/11/27 00:03:45;;;;;;;0.05;0.05;;;2.30;99.90;;;;;;5051797;28;20177;-69
2022/11/27 00:06:14;;;;;;;0.00;0.00;;;2.30;99.90;;;;;;5052042;28;20181;-68
2022/11/27 00:08:41;;;;;;;0.00;0.00;;;2.30;99.90;;;;;;5051753;28;20588;-69
2022/11/27 00:11:28;;;;;;;0.10;0.10;;;2.30;99.90;;;;;;5050656;28;20217;-68
2022/11/27 00:13:53;;;;;;;0.00;0.00;;;2.30;99.90;;;;;;5051483;28;20205;-69
2022/11/27 00:16:21;;;;;;;0.00;0.00;;;2.30;99.90;;;;;;5051062;28;20342;-68
2022/11/27 00:18:47;;;;;;;0.17;0.17;;;2.30;99.90;;;;;;5051448;28;20650;-67
2022/11/27 00:21:15;;;;;;;0.00;0.00;;;2.30;99.90;;;;;;5050609;28;20182;-67
2022/11/27 00:23:41;;;;;;;0.10;0.10;;;2.30;99.90;;;;;;5051739;28;20176;-67
2022/11/27 00:26:07;;;;;;;0.20;0.20;;;2.30;99.90;;;;;;5053881;28;20652;-67
2022/11/27 00:28:34;;;;;;;0.55;0.55;;;2.20;99.90;;;;;;5058411;28;20185;-67
2022/11/27 00:31:02;;;;;;;0.00;0.00;;;2.20;99.90;;;;;;5051778;28;20209;-68
2022/11/27 00:33:27;;;;;;;0.20;0.20;;;2.20;99.90;;;;;;5051692;28;20398;-68
2022/11/27 00:35:53;;;;;;;0.03;0.03;;;2.20;99.90;;;;;;5051616;28;20181;-68
2022/11/27 00:38:19;;;;;;;0.20;0.20;;;2.20;99.90;;;;;;5051756;28;20176;-68
2022/11/27 00:40:46;;;;;;;0.10;0.10;;;2.10;99.90;;;;;;5050014;28;20184;-68
2022/11/27 00:43:11;;;;;;;0.30;0.30;;;2.10;99.90;;;;;;5051076;28;20523;-68
2022/11/27 00:45:37;;;;;;;0.00;0.00;;;2.10;99.90;;;;;;5050563;28;20197;-68
2022/11/27 00:48:03;;;;;;;0.00;0.00;;;2.10;99.90;;;;;;5051527;28;20193;-68
2022/11/27 00:50:30;;;;;;;0.73;0.73;;;2.10;99.90;;;;;;5050914;28;20213;-68
2022/11/27 00:52:57;;;;;;;0.03;0.03;;;2.10;99.90;;;;;;5051635;28;20212;-68
2022/11/27 00:55:23;;;;;;;0.00;0.00;;;2.20;99.90;;;;;;5051529;28;20264;-68
2022/11/27 00:57:49;;;;;;;0.20;0.20;;;2.20;99.90;;;;;;5051326;28;20264;-68
2022/11/27 01:00:15;;;;;;;0.20;0.20;;;2.20;99.90;;;;;;5051139;28;20185;-68
2022/11/27 01:02:40;;;;;;;0.10;0.10;;;2.30;99.90;;;;;;5051321;28;20260;-68
2022/11/27 01:05:06;;;;;;;0.10;0.10;;;2.30;99.90;;;;;;5051084;28;20610;-68
2022/11/27 01:07:32;;;;;;;0.00;0.00;;;2.30;99.90;;;;;;5051217;28;20178;-67
2022/11/27 01:09:57;;;;;;;0.00;0.00;;;2.30;99.90;;;;;;5054281;28;20230;-68
2022/11/27 01:12:23;;;;;;;0.10;0.10;;;2.30;99.90;;;;;;5054650;28;20282;-68
2022/11/27 01:14:48;;;;;;;0.30;0.30;;;2.30;99.90;;;;;;5054686;28;20308;-68
2022/11/27 01:17:14;;;;;;;0.00;0.00;;;2.40;99.90;;;;;;5053856;28;20186;-68
2022/11/27 01:19:39;;;;;;;0.15;0.15;;;2.40;99.90;;;;;;5054671;28;20185;-67
2022/11/27 01:22:05;;;;;;;0.40;0.17;;;2.50;99.90;;;;;;5054759;28;20181;-68
2022/11/27 01:24:30;;;;;;;0.05;0.05;;;2.60;99.90;;;;;;5054828;28;20186;-68
2022/11/27 01:26:56;;;;;;;0.00;0.00;;;2.60;99.90;;;;;;5055065;28;20188;-68
2022/11/27 01:29:21;;;;;;;0.10;0.10;;;2.70;99.90;;;;;;5054762;28;20199;-68
2022/11/27 01:31:47;;;;;;;0.00;0.00;;;2.70;99.90;;;;;;5054815;28;20213;-68
2022/11/27 01:34:15;;;;;;;0.22;0.22;;;2.70;99.90;;;;;;5054700;28;20652;-68
2022/11/27 01:36:41;;;;;;;0.00;0.00;;;2.70;99.90;;;;;;5053067;28;20193;-68
2022/11/27 01:39:07;;;;;;;0.10;0.10;;;2.70;99.90;;;;;;5055010;28;20437;-68
2022/11/27 01:41:35;;;;;;;0.00;0.00;;;2.70;99.90;;;;;;5054404;28;20181;-68
2022/11/27 01:44:23;;;;;;;0.00;0.00;;;2.70;99.90;;;;;;5054083;28;20216;-69
2022/11/27 01:47:05;;;;;;;0.00;0.00;;;2.70;99.90;;;;;;5054157;28;20417;-69
2022/11/27 01:49:41;;;;;;;0.27;0.27;;;2.60;99.90;;;;;;5034738;28;20174;-68
2022/11/27 01:52:10;;;;;;;0.20;0.20;;;2.60;99.90;;;;;;5052066;28;20220;-69
2022/11/27 01:54:44;;;;;;;0.00;0.00;;;2.60;99.90;;;;;;5054451;28;20184;-68
2022/11/27 01:57:17;;;;;;;0.10;0.10;;;2.60;99.90;;;;;;5054486;28;20180;-68
2022/11/27 01:59:44;;;;;;;0.00;0.00;;;2.60;99.90;;;;;;5054025;28;20178;-69
2022/11/27 02:02:10;;;;;;;0.05;0.05;;;2.60;99.90;;;;;;5054482;28;20185;-68
2022/11/27 02:04:35;;;;;;;0.20;0.20;;;2.60;99.90;;;;;;5054360;28;20174;-68
2022/11/27 02:07:01;;;;;;;0.03;0.03;;;2.50;99.90;;;;;;5053835;28;20664;-68
2022/11/27 02:09:29;;;;;;;0.00;0.00;;;2.50;99.90;;;;;;5054433;28;20181;-68
2022/11/27 02:12:32;;;;;;;0.00;0.00;;;2.50;99.90;;;;;;5053897;28;20307;-68
2022/11/27 02:15:29;;;;;;;0.00;0.00;;;2.50;99.90;;;;;;5053830;28;20192;-68
2022/11/27 02:18:13;;;;;;;0.47;0.13;;;2.50;99.90;;;;;;5052547;28;20598;-67
2022/11/27 02:20:51;;;;;;;0.10;0.10;;;2.50;99.90;;;;;;5052934;28;20268;-67
2022/11/27 02:23:49;;;;;;;0.00;0.00;;;2.50;99.90;;;;;;5053669;28;20196;-68
2022/11/27 02:26:27;;;;;;;0.00;0.00;;;2.40;99.90;;;;;;5053818;28;20226;-68
2022/11/27 02:28:55;;;;;;;0.10;0.10;;;2.40;99.90;;;;;;5053002;28;20219;-68
2022/11/27 02:31:31;;;;;;;0.10;0.10;;;2.40;99.90;;;;;;5053583;28;20213;-68
2022/11/27 02:34:04;;;;;;;0.10;0.10;;;2.30;99.90;;;;;;5053144;28;20227;-68
2022/11/27 02:36:32;;;;;;;0.00;0.00;;;2.30;99.90;;;;;;5052937;28;20186;-67
2022/11/27 02:39:09;;;;;;;0.60;0.60;;;2.30;99.90;;;;;;5044738;28;20178;-68
2022/11/27 02:41:52;;;;;;;0.00;0.00;;;2.30;99.90;;;;;;5053614;28;20243;-68
2022/11/27 02:44:20;;;;;;;0.00;0.00;;;2.30;99.90;;;;;;5039035;28;20260;-68
2022/11/27 02:46:47;;;;;;;0.00;0.00;;;2.20;99.90;;;;;;5053563;28;20255;-68
2022/11/27 02:49:17;;;;;;;0.30;0.30;;;2.20;99.90;;;;;;5053413;28;20566;-67
2022/11/27 02:51:48;;;;;;;0.20;0.20;;;2.20;99.90;;;;;;5053017;28;20214;-67
2022/11/27 02:54:19;;;;;;;1.40;0.40;;;2.20;99.90;;;;;;5053436;28;20248;-67
2022/11/27 02:56:47;;;;;;;1.00;0.67;;;2.10;99.90;;;;;;5051901;28;20189;-67
2022/11/27 02:59:15;;;;;;;0.00;0.00;;;2.10;99.90;;;;;;5052959;28;20173;-68
2022/11/27 03:01:45;;;;;;;0.00;0.00;;;2.00;99.90;;;;;;5062866;28;20635;-68
2022/11/27 03:04:18;;;;;;;0.20;0.20;;;2.00;99.90;;;;;;5057115;28;20196;-67
2022/11/27 03:06:52;;;;;;;0.05;0.05;;;2.00;99.90;;;;;;5052383;28;20270;-67
2022/11/27 03:09:30;;;;;;;0.03;0.03;;;1.90;99.90;;;;;;5052781;28;20185;-67
2022/11/27 03:11:56;;;;;;;0.25;0.25;;;1.90;99.90;;;;;;5051261;28;20220;-68
2022/11/27 03:14:23;;;;;;;0.00;0.00;;;1.90;99.90;;;;;;5052206;28;20561;-67
2022/11/27 03:16:52;;;;;;;0.53;0.30;;;1.90;99.90;;;;;;5050381;28;20615;-67
2022/11/27 03:19:23;;;;;;;0.00;0.00;;;1.90;99.90;;;;;;5051246;28;20204;-68
2022/11/27 03:21:57;;;;;;;0.00;0.00;;;1.90;99.90;;;;;;5052405;28;20283;-68
2022/11/27 03:24:24;;;;;;;0.10;0.10;;;1.90;99.90;;;;;;5051260;28;20606;-68
2022/11/27 03:26:50;;;;;;;0.10;0.10;;;1.90;99.90;;;;;;5052010;28;20181;-68
2022/11/27 03:29:45;;;;;;;0.13;0.13;;;1.90;99.90;;;;;;5036432;28;20192;-68
2022/11/27 03:32:10;;;;;;;0.10;0.10;;;1.90;99.90;;;;;;5049772;28;20232;-67
2022/11/27 03:34:36;;;;;;;0.00;0.00;;;1.80;99.90;;;;;;5052543;28;20189;-67
2022/11/27 03:37:03;;;;;;;0.47;0.47;;;1.90;99.90;;;;;;5051675;28;20181;-67
2022/11/27 03:39:30;;;;;;;0.10;0.10;;;1.80;99.90;;;;;;5051835;28;20246;-68
2022/11/27 03:42:14;;;;;;;0.00;0.00;;;1.80;99.90;;;;;;5051822;28;20181;-68
2022/11/27 03:45:16;;;;;;;0.00;0.00;;;1.90;99.90;;;;;;5046611;28;20585;-67
2022/11/27 03:48:05;;;;;;;0.00;0.00;;;1.90;99.90;;;;;;5039188;28;20232;-68
2022/11/27 03:50:30;;;;;;;0.00;0.00;;;1.90;99.90;;;;;;5051841;28;20607;-67
2022/11/27 03:53:05;;;;;;;0.00;0.00;;;1.80;99.90;;;;;;5051650;28;20243;-67
2022/11/27 03:55:45;;;;;;;0.08;0.08;;;1.80;99.90;;;;;;5036279;28;20392;-67
2022/11/27 03:58:19;;;;;;;0.10;0.10;;;1.80;99.90;;;;;;5041662;28;20200;-67
2022/11/27 04:00:48;;;;;;;0.00;0.00;;;1.80;99.90;;;;;;5051712;28;20185;-68
2022/11/27 04:03:13;;;;;;;0.00;0.00;;;1.80;99.90;;;;;;5051360;28;20181;-68
2022/11/27 04:05:39;;;;;;;0.10;0.10;;;1.80;99.90;;;;;;5050659;28;20173;-67
2022/11/27 04:08:05;;;;;;;0.00;0.00;;;1.70;99.90;;;;;;5051741;28;20192;-68
2022/11/27 04:10:30;;;;;;;0.22;0.22;;;1.70;99.90;;;;;;5052001;28;20201;-68
2022/11/27 04:12:56;;;;;;;0.10;0.10;;;1.70;99.90;;;;;;5051062;28;20225;-68
2022/11/27 04:15:22;;;;;;;0.00;0.00;;;1.70;99.90;;;;;;5051459;28;20243;-68
2022/11/27 04:17:47;;;;;;;1.65;1.27;;;1.60;99.90;;;;;;5051361;28;20255;-68
2022/11/27 04:20:14;;;;;;;0.37;0.37;;;1.60;99.90;;;;;;5051652;28;20699;-68
2022/11/27 04:22:40;;;;;;;0.17;0.17;;;1.60;99.90;;;;;;5049959;28;20208;-68
2022/11/27 04:25:06;;;;;;;0.20;0.20;;;1.50;99.90;;;;;;5051058;28;20644;-68
2022/11/27 04:27:32;;;;;;;0.00;0.00;;;1.50;99.90;;;;;;5051170;28;20189;-68
2022/11/27 04:29:57;;;;;;;0.15;0.10;;;1.40;99.90;;;;;;5051233;28;20166;-67
2022/11/27 04:32:23;;;;;;;0.13;0.13;;;1.40;99.90;;;;;;5050107;28;20220;-68
2022/11/27 04:34:48;;;;;;;0.00;0.00;;;1.30;99.90;;;;;;5051455;28;20181;-68
2022/11/27 04:37:14;;;;;;;0.00;0.00;;;1.30;99.90;;;;;;5051163;28;20267;-68
2022/11/27 04:39:39;;;;;;;0.00;0.00;;;1.20;99.90;;;;;;5051374;28;20170;-68
2022/11/27 04:42:05;;;;;;;0.00;0.00;;;1.20;99.90;;;;;;5051284;28;20173;-68
2022/11/27 04:44:30;;;;;;;0.20;0.20;;;1.10;99.90;;;;;;5054282;28;20227;-68
2022/11/27 04:46:56;;;;;;;0.00;0.00;;;1.10;99.90;;;;;;5055137;28;20197;-68
2022/11/27 04:49:22;;;;;;;0.00;0.00;;;1.10;99.90;;;;;;5055319;28;20216;-68
2022/11/27 04:51:47;;;;;;;0.00;0.00;;;1.10;99.90;;;;;;5053818;28;20217;-68
2022/11/27 04:54:13;;;;;;;0.00;0.00;;;1.00;99.90;;;;;;5055803;28;20217;-68
2022/11/27 04:56:38;;;;;;;0.00;0.00;;;0.90;99.90;;;;;;5055268;28;20256;-68
2022/11/27 04:59:04;;;;;;;0.00;0.00;;;0.90;99.90;;;;;;5055106;28;20190;-68
2022/11/27 05:01:30;;;;;;;0.00;0.00;;;0.90;99.90;;;;;;5055189;28;20238;-68
2022/11/27 05:03:55;;;;;;;0.07;0.07;;;0.80;99.90;;;;;;5055309;28;20185;-68
2022/11/27 05:06:21;;;;;;;0.27;0.27;;;0.80;99.90;;;;;;5055396;28;20185;-68
2022/11/27 05:08:47;;;;;;;0.10;0.10;;;0.80;99.90;;;;;;5054872;28;20257;-68
2022/11/27 05:11:15;;;;;;;0.10;0.10;;;0.70;99.90;;;;;;5054889;28;20255;-68
2022/11/27 05:13:40;;;;;;;0.13;0.13;;;0.70;99.90;;;;;;5053333;28;20225;-67
2022/11/27 05:16:07;;;;;;;0.00;0.00;;;0.60;99.90;;;;;;5053684;28;20674;-68
2022/11/27 05:18:33;;;;;;;0.00;0.00;;;0.60;99.90;;;;;;5055087;28;20635;-68
2022/11/27 05:21:00;;;;;;;0.00;0.00;;;0.60;99.90;;;;;;5054655;28;20189;-68
2022/11/27 05:23:27;;;;;;;0.00;0.00;;;0.50;99.90;;;;;;5054627;28;20668;-67
2022/11/27 05:25:52;;;;;;;0.10;0.10;;;0.60;99.90;;;;;;5054576;28;20178;-67
2022/11/27 05:28:19;;;;;;;0.10;0.10;;;0.60;99.90;;;;;;5054878;28;20672;-68
2022/11/27 05:30:45;;;;;;;0.47;0.47;;;0.60;99.90;;;;;;5054294;28;20212;-67
2022/11/27 05:33:10;;;;;;;0.17;0.17;;;0.60;99.90;;;;;;5050693;28;20536;-68
2022/11/27 05:35:36;;;;;;;0.10;0.10;;;0.50;99.90;;;;;;5054280;28;20186;-68
2022/11/27 05:38:01;;;;;;;0.00;0.00;;;0.50;99.90;;;;;;5054049;28;20257;-68
2022/11/27 05:40:27;;;;;;;0.00;0.00;;;0.50;99.90;;;;;;5054797;28;20194;-68
2022/11/27 05:42:52;;;;;;;0.00;0.00;;;0.50;99.90;;;;;;5054199;28;20185;-68
2022/11/27 05:45:18;;;;;;;0.10;0.10;;;0.50;99.90;;;;;;5054117;28;20196;-68
2022/11/27 05:47:43;;;;;;;0.00;0.00;;;0.50;99.90;;;;;;5053953;28;20184;-68
2022/11/27 05:50:09;;;;;;;0.30;0.30;;;0.50;99.90;;;;;;5053639;28;20192;-68
2022/11/27 05:52:34;;;;;;;0.00;0.00;;;0.50;99.90;;;;;;5053683;28;20185;-68
2022/11/27 05:55:00;;;;;;;0.00;0.00;;;0.50;99.90;;;;;;5052623;28;20184;-68
2022/11/27 05:57:27;;;;;;;0.00;0.00;;;0.50;99.90;;;;;;5054168;28;20252;-68
2022/11/27 05:59:52;;;;;;;0.00;0.00;;;0.60;99.90;;;;;;5053011;28;20292;-68
2022/11/27 06:02:18;;;;;;;0.23;0.23;;;0.60;99.90;;;;;;5053640;28;20692;-67
2022/11/27 06:04:44;;;;;;;0.00;0.00;;;0.60;99.90;;;;;;5053588;28;20181;-68
2022/11/27 06:07:09;;;;;;;0.00;0.00;;;0.60;99.90;;;;;;5053745;28;20177;-68
2022/11/27 06:09:37;;;;;;;0.10;0.10;;;0.60;99.90;;;;;;5052050;28;20536;-68
2022/11/27 06:12:02;;;;;;;0.00;0.00;;;0.60;99.90;;;;;;5053492;28;20216;-68
2022/11/27 06:14:30;;;;;;;0.07;0.07;;;0.60;99.90;;;;;;5053284;28;20213;-67
2022/11/27 06:16:56;;;;;;;0.00;0.00;;;0.50;99.90;;;;;;5053699;28;20184;-67
2022/11/27 06:19:22;;;;;;;0.10;0.10;;;0.50;99.90;;;;;;5054837;28;20182;-68
2022/11/27 06:21:47;;;;;;;0.00;0.00;;;0.50;99.90;;;;;;5051855;28;20193;-68
2022/11/27 06:24:13;;;;;;;0.00;0.00;;;0.50;99.90;;;;;;5052338;28;20280;-67
2022/11/27 06:26:38;;;;;;;0.07;0.07;;;0.50;99.90;;;;;;5053489;28;20551;-67
2022/11/27 06:29:04;;;;;;;0.00;0.00;;;0.50;99.90;;;;;;5052256;28;20656;-67
2022/11/27 06:31:31;;;;;;;0.47;0.47;;;0.50;99.90;;;;;;5053091;28;20219;-67
2022/11/27 06:33:58;;;;;;;0.10;0.10;;;0.60;99.90;;;;;;5052769;28;20653;-67
2022/11/27 06:36:27;;;;;;;0.00;0.00;;;0.60;99.90;;;;;;5053231;28;20196;-68
2022/11/27 06:38:53;;;;;;;0.00;0.00;;;0.60;99.90;;;;;;5053382;28;20219;-68
2022/11/27 06:41:26;;;;;;;0.00;0.00;;;0.60;99.90;;;;;;5053162;28;20190;-67
2022/11/27 06:43:52;;;;;;;0.00;0.00;;;0.60;99.90;;;;;;5051700;28;20184;-67
2022/11/27 06:46:20;;;;;;;0.00;0.00;;;0.60;99.90;;;;;;5053138;28;20216;-68
2022/11/27 06:48:47;;;;;;;0.00;0.00;;;0.50;99.90;;;;;;5052970;28;20193;-67
2022/11/27 06:51:15;;;;;;;0.00;0.00;;;0.50;99.90;;;;;;5052748;28;20684;-67
2022/11/27 06:53:41;;;;;;;0.00;0.00;;;0.50;99.90;;;;;;5050608;28;20436;-67
2022/11/27 06:56:09;;;;;;;0.00;0.00;;;0.50;99.90;;;;;;5068463;28;20190;-67
2022/11/27 06:58:35;;;;;;;0.33;0.33;;;0.50;99.90;;;;;;5053124;28;20255;-67
2022/11/27 07:01:04;;;;;;;0.00;0.00;;;0.50;99.90;;;;;;5052516;28;20177;-68
2022/11/27 07:03:29;;;;;;;0.00;0.00;;;0.60;99.90;;;;;;5052821;28;20220;-68
2022/11/27 07:05:58;;;;;;;0.17;0.17;;;0.60;99.90;;;;;;5050970;28;20259;-68
2022/11/27 07:08:24;;;;;;;0.03;0.03;;;0.60;99.90;;;;;;5052701;28;20185;-67
2022/11/27 07:10:49;;;;;;;0.10;0.10;;;0.70;99.90;;;;;;5052382;28;20561;-68
2022/11/27 07:13:15;;;;;;;0.00;0.00;;;0.70;99.90;;;;;;5052869;28;20255;-68
2022/11/27 07:15:41;;;;;;;0.13;0.13;;;0.80;99.90;;;;;;5051073;28;20178;-68
2022/11/27 07:18:06;;;;;;;0.30;0.30;;;0.90;99.90;;;;;;5052188;28;20192;-68
2022/11/27 07:20:32;;;;;;;0.10;0.10;;;1.00;99.90;;;;;;5052227;28;20192;-68
2022/11/27 07:22:57;;;;;;;0.00;0.00;;;1.10;99.90;;;;;;5052530;28;20264;-67
2022/11/27 07:25:23;;;;;;;0.00;0.00;;;1.20;99.90;;;;;;5052791;28;20182;-68
2022/11/27 07:27:48;;;;;;;0.20;0.20;;;1.30;99.90;;;;;;5052124;28;20240;-68
2022/11/27 07:30:14;;;;;;;0.07;0.07;;;1.40;99.90;;;;;;5052035;28;20723;-68
2022/11/27 07:32:40;;;;;;;0.30;0.30;;;1.50;99.90;;;;;;5052391;28;20185;-68
2022/11/27 07:35:06;;;;;;;0.00;0.00;;;1.60;99.90;;;;;;5051279;28;20182;-68
2022/11/27 07:37:32;;;;;;;0.00;0.00;;;1.70;99.90;;;;;;5052307;28;20239;-68
2022/11/27 07:39:58;;;;;;;0.00;0.00;;;1.80;99.90;;;;;;5052611;28;20185;-68
2022/11/27 07:42:24;;;;;;;0.17;0.17;;;1.90;99.90;;;;;;5052244;28;20591;-68
2022/11/27 07:44:49;;;;;;;0.23;0.23;;;2.00;99.90;;;;;;5051812;28;20546;-68
2022/11/27 07:47:15;;;;;;;0.00;0.00;;;2.10;99.90;;;;;;5052550;28;20184;-68
2022/11/27 07:49:40;;;;;;;0.00;0.00;;;2.10;99.90;;;;;;5052035;28;20189;-68
2022/11/27 07:52:06;;;;;;;0.32;0.32;;;2.20;99.90;;;;;;5051988;28;20228;-68
2022/11/27 07:54:32;;;;;;;0.75;0.28;;;2.30;99.90;;;;;;5052367;28;20174;-67
2022/11/27 07:56:57;;;;;;;0.00;0.00;;;2.40;99.90;;;;;;5051739;28;20260;-67
2022/11/27 07:59:23;;;;;;;0.00;0.00;;;2.50;99.90;;;;;;5051215;28;20182;-69
2022/11/27 08:01:48;;;;;;;0.80;0.52;;;2.50;99.90;;;;;;5051703;28;20181;-68
2022/11/27 08:04:14;;;;;;;0.22;0.22;;;2.70;99.90;;;;;;5051425;28;20648;-69
2022/11/27 08:06:39;;;;;;;0.10;0.10;;;2.90;99.90;;;;;;5051532;28;20197;-67
2022/11/27 08:09:05;;;;;;;0.52;0.52;;;3.10;99.90;;;;;;5051535;28;20185;-69
2022/11/27 08:11:34;;;;;;;0.05;0.05;;;3.30;99.90;;;;;;5051559;28;20225;-71
2022/11/27 08:14:02;;;;;;;0.00;0.00;;;3.50;99.90;;;;;;5051162;28;20763;-69
2022/11/27 08:16:28;;;;;;;0.00;0.00;;;3.70;99.90;;;;;;5051058;28;20231;-66
2022/11/27 08:18:54;;;;;;;0.10;0.10;;;3.80;99.90;;;;;;5050919;28;20182;-65
2022/11/27 08:21:19;;;;;;;0.00;0.00;;;3.80;99.90;;;;;;5051835;28;20177;-68
2022/11/27 08:23:45;;;;;;;0.00;0.00;;;3.80;99.90;;;;;;5051392;28;20521;-70
2022/11/27 08:26:11;;;;;;;0.03;0.03;;;3.80;99.90;;;;;;5051193;28;20177;-65
2022/11/27 08:28:38;;;;;;;0.22;0.10;;;3.80;99.90;;;;;;5044796;28;20184;-65
2022/11/27 08:31:05;;;;;;;0.20;0.20;;;3.80;99.90;;;;;;5050871;28;20292;-69
2022/11/27 08:33:32;;;;;;;0.00;0.00;;;3.80;99.90;;;;;;5051401;28;20186;-66
2022/11/27 08:35:57;;;;;;;0.00;0.00;;;3.80;99.90;;;;;;5051355;28;20557;-68
2022/11/27 08:38:23;;;;;;;0.10;0.10;;;3.80;99.90;;;;;;5051090;28;20177;-67
2022/11/27 08:41:00;;;;;;;0.38;0.38;;;3.70;99.90;;;;;;5050361;28;20189;-66
2022/11/27 08:43:26;;;;;;;0.10;0.00;;;3.60;99.90;;;;;;5050951;28;20538;-67
2022/11/27 08:45:52;;;;;;;0.00;0.00;;;3.60;99.90;;;;;;5050819;28;20192;-67
2022/11/27 08:48:19;;;;;;;0.15;0.05;;;3.60;99.90;;;;;;5051289;28;20193;-69
2022/11/27 08:50:45;;;;;;;0.00;0.00;;;3.60;99.90;;;;;;5051254;28;20343;-69
2022/11/27 08:53:11;;;;;;;0.00;0.00;;;3.60;99.90;;;;;;5051457;28;20270;-68
2022/11/27 08:55:36;;;;;;;0.00;0.00;;;3.60;99.90;;;;;;5050985;28;20174;-67
2022/11/27 08:58:02;;;;;;;0.00;0.00;;;3.60;99.90;;;;;;5050397;28;20213;-67
2022/11/27 09:00:28;;;;;;;0.30;0.30;;;3.60;99.90;;;;;;5051181;28;20196;-66
2022/11/27 09:02:54;;;;;;;0.03;0.03;;;3.60;99.90;;;;;;5060541;28;20204;-66
2022/11/27 09:05:20;;;;;;;0.00;0.00;;;3.70;99.90;;;;;;5062635;28;20186;-67
2022/11/27 09:07:45;;;;;;;0.00;0.00;;;3.80;99.90;;;;;;5050055;28;20184;-66
2022/11/27 09:10:11;;;;;;;0.00;0.00;;;3.90;99.90;;;;;;5045064;28;20269;-66
2022/11/27 09:12:36;;;;;;;0.00;0.00;;;4.00;99.90;;;;;;5031330;28;20238;-66
2022/11/27 09:15:02;;;;;;;0.30;0.30;;;4.10;99.90;;;;;;5041991;28;20197;-66
2022/11/27 09:17:29;;;;;;;0.00;0.00;;;4.20;99.90;;;;;;5052523;28;20547;-66
2022/11/27 09:19:55;;;;;;;0.00;0.00;;;4.30;99.90;;;;;;5051434;28;20185;-66
2022/11/27 09:22:20;;;;;;;0.00;0.00;;;4.30;99.90;;;;;;5051481;28;20177;-66
2022/11/27 09:24:46;;;;;;;0.00;0.00;;;4.40;99.90;;;;;;5051285;28;20180;-66
2022/11/27 09:27:11;;;;;;;0.00;0.00;;;4.50;99.90;;;;;;5050713;28;20212;-66
2022/11/27 09:29:37;;;;;;;0.00;0.00;;;4.60;99.90;;;;;;5052668;28;20212;-66
2022/11/27 09:32:02;;;;;;;0.00;0.00;;;4.70;99.90;;;;;;5055052;28;20248;-67
2022/11/27 09:34:28;;;;;;;0.10;0.10;;;4.90;99.90;;;;;;5054807;28;20609;-66
2022/11/27 09:36:53;;;;;;;0.00;0.00;;;5.00;99.90;;;;;;5055048;28;20178;-67
2022/11/27 09:39:19;;;;;;;0.05;0.05;;;5.20;99.90;;;;;;5054863;28;20220;-66
2022/11/27 09:41:55;;;;;;;0.00;0.00;;;5.40;99.90;;;;;;5053761;28;20170;-67
2022/11/27 09:44:56;;;;;;;0.22;0.20;;;5.70;99.90;;;;;;5054953;28;20633;-66
2022/11/27 09:47:32;;;;;;;0.00;0.00;;;5.90;99.90;;;;;;5052082;28;20195;-66
2022/11/27 09:50:05;;;;;;;0.00;0.00;;;6.10;99.90;;;;;;5054628;28;20177;-67
2022/11/27 09:52:51;;;;;;;0.00;0.00;;;6.20;99.90;;;;;;5054490;28;20308;-66
2022/11/27 09:55:30;;;;;;;0.05;0.05;;;6.40;99.90;;;;;;5054297;28;20177;-66
2022/11/27 09:58:10;;;;;;;0.08;0.08;;;6.60;99.90;;;;;;5054816;28;20209;-67
2022/11/27 10:00:35;;;;;;;0.00;0.00;;;6.70;99.90;;;;;;5049879;28;20231;-67
2022/11/27 10:03:01;;;;;;;0.10;0.10;;;6.80;99.90;;;;;;5054452;28;20177;-67
2022/11/27 10:05:42;;;;;;;0.00;0.00;;;7.00;99.90;;;;;;5054081;28;20197;-67
2022/11/27 10:08:20;;;;;;;0.32;0.32;;;7.40;99.90;;;;;;5053891;28;20185;-67
2022/11/27 10:11:25;;;;;;;0.00;0.00;;;7.90;99.90;;;;;;5053496;28;20209;-66
2022/11/27 10:13:59;;;;;;;0.00;0.00;;;8.40;99.90;;;;;;5053765;28;20259;-68
2022/11/27 10:16:49;;;;;;;0.00;0.00;;;8.60;99.90;;;;;;5053866;28;20549;-67
2022/11/27 10:19:49;;;;;;;0.00;0.00;;;8.70;99.90;;;;;;5056459;28;20213;-68
2022/11/27 10:22:31;;;;;;;0.00;0.00;;;8.70;99.90;;;;;;5053902;28;20188;-68
2022/11/27 10:25:12;;;;;;;0.00;0.00;;;8.70;99.90;;;;;;5053700;28;20184;-67
2022/11/27 10:28:00;;;;;;;0.00;0.00;;;8.70;99.90;;;;;;5053562;28;20227;-68
2022/11/27 10:30:29;;;;;;;0.00;0.00;;;8.70;99.90;;;;;;5054707;28;20219;-68
2022/11/27 10:32:57;;;;;;;0.00;0.00;;;8.70;99.90;;;;;;5058087;28;20661;-68
2022/11/27 10:35:25;;;;;;;0.00;0.00;;;8.50;99.90;;;;;;5053969;28;20190;-68
2022/11/27 10:38:14;;;;;;;0.00;0.00;;;8.60;99.90;;;;;;5053533;28;20299;-68
2022/11/27 10:40:59;;;;;;;0.15;0.15;;;8.60;99.90;;;;;;5048626;28;20188;-68
2022/11/27 10:43:25;;;;;;;0.00;0.00;;;8.60;99.90;;;;;;5052082;28;20173;-68
2022/11/27 10:45:55;;;;;;;0.00;0.00;;;8.60;99.90;;;;;;5053404;28;20269;-68
2022/11/27 10:48:21;;;;;;;0.00;0.00;;;8.70;99.90;;;;;;5053371;28;20272;-68
2022/11/27 10:50:46;;;;;;;0.00;0.00;;;8.70;99.90;;;;;;5053349;28;20201;-68
2022/11/27 10:53:19;;;;;;;0.00;0.00;;;8.70;99.90;;;;;;5053034;28;20177;-68
2022/11/27 10:56:15;;;;;;;0.00;0.00;;;8.80;99.90;;;;;;5053120;28;20231;-67
2022/11/27 10:58:53;;;;;;;0.00;0.00;;;8.80;99.90;;;;;;5053367;28;20223;-68
2022/11/27 11:01:20;;;;;;;0.00;0.00;;;8.90;99.90;;;;;;5043458;28;20209;-68
2022/11/27 11:03:46;;;;;;;0.00;0.00;;;9.00;99.90;;;;;;5052972;28;20186;-68
2022/11/27 11:06:24;;;;;;;0.00;0.00;;;8.90;99.90;;;;;;5053152;28;20181;-67
2022/11/27 11:09:05;;;;;;;0.00;0.00;;;8.90;99.90;;;;;;5052856;28;20181;-68
2022/11/27 11:11:31;;;;;;;0.03;0.03;;;8.80;99.90;;;;;;5041419;28;20213;-68
2022/11/27 11:13:57;;;;;;;0.00;0.00;;;8.80;99.90;;;;;;5052668;28;20546;-67
2022/11/27 11:16:29;;;;;;;0.00;0.00;;;8.70;99.90;;;;;;5053162;28;20293;-67
2022/11/27 11:18:55;;;;;;;0.00;0.00;;;8.60;99.90;;;;;;5052847;28;20241;-67
2022/11/27 11:21:25;;;;;;;0.00;0.00;;;8.50;99.90;;;;;;5052724;28;20648;-67
2022/11/27 11:24:20;;;;;;;0.00;0.00;;;8.50;99.90;;;;;;5052722;28;20476;-67
2022/11/27 11:26:49;;;;;;;0.00;0.00;;;8.50;99.90;;;;;;5052208;28;20219;-67
2022/11/27 11:29:38;;;;;;;0.00;0.00;;;8.60;99.90;;;;;;5052502;28;20277;-68
2022/11/27 11:32:08;;;;;;;0.00;0.00;;;8.70;99.90;;;;;;5052475;28;20213;-67
2022/11/27 11:34:34;;;;;;;0.00;0.00;;;8.70;99.90;;;;;;5052431;28;20189;-67
2022/11/27 11:37:06;;;;;;;0.00;0.00;;;8.80;99.90;;;;;;5052336;28;20212;-69
2022/11/27 11:39:38;;;;;;;0.10;0.10;;;8.90;99.90;;;;;;5037317;28;20679;-68
2022/11/27 11:42:24;;;;;;;0.00;0.00;;;9.00;99.90;;;;;;5052023;28;20197;-68
2022/11/27 11:45:10;;;;;;;0.00;0.00;;;9.10;99.90;;;;;;5050626;28;20184;-67
2022/11/27 11:47:53;;;;;;;0.00;0.00;;;9.20;99.90;;;;;;5032661;28;20224;-67
2022/11/27 11:50:50;;;;;;;0.00;0.00;;;9.20;99.90;;;;;;5052187;28;20185;-67
2022/11/27 11:53:35;;;;;;;0.10;0.10;;;9.10;99.90;;;;;;5048185;28;20201;-67
2022/11/27 11:56:17;;;;;;;0.00;0.00;;;9.00;99.90;;;;;;5052356;28;20256;-67
2022/11/27 11:58:58;;;;;;;0.00;0.00;;;9.10;99.90;;;;;;5046762;28;20185;-68
2022/11/27 12:01:59;;;;;;;0.00;0.00;;;9.10;99.90;;;;;;5049891;28;20200;-68
2022/11/27 12:05:03;;;;;;;0.00;0.00;;;9.10;99.90;;;;;;5055154;28;20202;-67
2022/11/27 12:08:01;;;;;;;0.00;0.00;;;9.10;99.90;;;;;;5050395;28;20181;-68
2022/11/27 12:10:47;;;;;;;0.00;0.00;;;9.10;99.90;;;;;;5050904;28;20374;-67
2022/11/27 12:13:25;;;;;;;0.00;0.00;;;9.00;99.90;;;;;;5051869;28;20232;-67
2022/11/27 12:16:06;;;;;;;0.00;0.00;;;9.00;99.90;;;;;;5051654;28;20222;-68
2022/11/27 12:18:50;;;;;;;0.00;0.00;;;9.00;99.90;;;;;;5051339;28;20621;-67
2022/11/27 12:21:43;;;;;;;0.00;0.00;;;9.10;99.90;;;;;;5051610;28;20177;-67
2022/11/27 12:24:30;;;;;;;0.00;0.00;;;9.10;99.90;;;;;;5032192;28;20182;-68
2022/11/27 12:27:20;;;;;;;0.00;0.00;;;9.20;99.90;;;;;;5038048;28;20193;-67
2022/11/27 12:30:09;;;;;;;0.00;0.00;;;9.10;99.90;;;;;;5051893;28;20178;-67
2022/11/27 12:32:54;;;;;;;0.00;0.00;;;9.10;99.90;;;;;;5051524;28;20275;-68
2022/11/27 12:35:31;;;;;;;0.00;0.00;;;9.20;99.90;;;;;;5052066;28;20209;-68
2022/11/27 12:38:29;;;;;;;0.00;0.00;;;9.20;99.90;;;;;;5049851;28;20169;-69
2022/11/27 12:41:10;;;;;;;0.00;0.00;;;9.30;99.90;;;;;;5045842;28;20242;-69
2022/11/27 12:43:49;;;;;;;0.00;0.00;;;9.20;99.90;;;;;;5051121;28;20268;-66
2022/11/27 12:46:23;;;;;;;0.00;0.00;;;9.20;99.90;;;;;;5051669;28;20177;-68
2022/11/27 12:48:56;;;;;;;0.00;0.00;;;9.20;99.90;;;;;;5051082;28;20188;-67
2022/11/27 12:51:47;;;;;;;0.00;0.00;;;9.20;99.90;;;;;;5051484;28;20672;-67
2022/11/27 12:54:39;;;;;;;0.00;0.00;;;9.20;99.90;;;;;;5051291;28;20185;-68
2022/11/27 12:57:12;;;;;;;0.00;0.00;;;9.30;99.90;;;;;;5051380;28;20173;-70
2022/11/27 12:59:42;;;;;;;0.17;0.17;;;9.40;99.90;;;;;;5051364;28;20717;-70
2022/11/27 13:02:30;;;;;;;0.00;0.00;;;9.40;99.90;;;;;;5051474;28;20189;-70
2022/11/27 13:05:21;;;;;;;0.00;0.00;;;9.40;99.90;;;;;;5053349;28;20201;-70
2022/11/27 13:07:47;;;;;;;0.00;0.00;;;9.40;99.90;;;;;;5055334;28;20177;-70
2022/11/27 13:10:24;;;;;;;0.00;0.00;;;9.30;99.90;;;;;;5054370;28;20264;-71
2022/11/27 13:12:59;;;;;;;0.00;0.00;;;9.30;99.90;;;;;;5054515;28;20262;-71
2022/11/27 13:15:39;;;;;;;0.00;0.00;;;9.20;99.90;;;;;;5055230;28;20215;-71
2022/11/27 13:18:31;;;;;;;0.00;0.00;;;9.20;99.90;;;;;;5055314;28;20168;-71